Dest Fox Harbr Too — ZCXB6 — position and weather

sailwx.info

Track history (hours):
 
Tides and Currents Weather Stations Pressure Air Temp Water Temp Dewpoint Dewpoint Depression Visibility Wind Speed Wind Dir Waves Ship Positions

Dest Fox Harbr Too

Last reported at 2015-Jul-29 18:27 UTC. Time now 2015-Jul-31 01:05 UTC.
Position N 38°46' E 001°25'.

Length 50 m; draft 2.4 m.

Type: Pleasure craft. MMSI: 319370000.

Date/timePositionNaut miles runAvg speedWind from/ knotsBaromVisibWave heightAir tempDewpointWater temp
2015-Jul-29 18:27N 38°46' E 001°25'0 0.4
2015-Jul-29 17:32N 38°46' E 001°26'0 0.0
2015-Jul-29 16:30N 38°46' E 001°26'0 0.0
2015-Jul-29 15:32N 38°46' E 001°26'0 0.0
2015-Jul-29 14:31N 38°46' E 001°26'5 0.1
2015-Jul-27 16:31N 38°51' E 001°24'0 0.0
2015-Jul-27 13:24N 38°51' E 001°24'2 0.1
2015-Jul-26 09:11N 38°49' E 001°22'5 0.1
2015-Jul-24 19:22N 38°53' E 001°27'1 0.1
2015-Jul-24 05:24N 38°54' E 001°27'1011.8
2015-Jul-24 04:33N 38°59' E 001°39'1211.8
2015-Jul-24 03:33N 39°05' E 001°51'1211.9
2015-Jul-24 02:33N 39°11' E 002°04'1211.9
2015-Jul-24 01:33N 39°18' E 002°17'1212.1
2015-Jul-24 00:33N 39°25' E 002°30'7 7.0
2015-Jul-23 23:30N 39°32' E 002°34'0 0.0
2015-Jul-23 22:30N 39°32' E 002°34'4 4.7
2015-Jul-23 21:33N 39°27' E 002°32'13 5.5
2015-Jul-23 19:17N 39°37' E 002°21'1114.7
2015-Jul-23 18:32N 39°44' E 002°32'5412.9
2015-Jul-23 14:21N 39°55' E 003°41'  
2015-Jul-20 06:31N 40°06' E 003°58'5012.5
2015-Jul-20 02:33N 39°57' E 002°55'1312.8
2015-Jul-20 01:33N 39°53' E 002°39'1312.8
2015-Jul-20 00:33N 39°46' E 002°25'1212.5
2015-Jul-19 23:33N 39°38' E 002°13'1312.5
2015-Jul-19 22:30N 39°30' E 001°59'1212.5
2015-Jul-19 21:33N 39°22' E 001°48'1612.4
2015-Jul-19 20:17N 39°12' E 001°32'912.6
2015-Jul-19 19:33N 39°06' E 001°23'1110.9
2015-Jul-19 18:33N 38°58' E 001°13'  
Track history (hours):
 
Tides and Currents Weather Stations Pressure Air Temp Water Temp Dewpoint Dewpoint Depression Visibility Wind Speed Wind Dir Waves Ship Positions

Dest Fox Harbr Too

Last reported at 2015-Jul-29 18:27 UTC. Time now 2015-Jul-31 01:05 UTC.
Position N 38°46' E 001°25'.

Length 50 m; draft 2.4 m.

Type: Pleasure craft. MMSI: 319370000.

Date/timePositionNaut miles runAvg speedWind from/ knotsBaromVisibWave heightAir tempDewpointWater temp
2015-Jul-29 18:27N 38°46' E 001°25'0 0.4
2015-Jul-29 17:32N 38°46' E 001°26'0 0.0
2015-Jul-29 16:30N 38°46' E 001°26'0 0.0
2015-Jul-29 15:32N 38°46' E 001°26'0 0.0
2015-Jul-29 14:31N 38°46' E 001°26'5 0.1
2015-Jul-27 16:31N 38°51' E 001°24'0 0.0
2015-Jul-27 13:24N 38°51' E 001°24'2 0.1
2015-Jul-26 09:11N 38°49' E 001°22'5 0.1
2015-Jul-24 19:22N 38°53' E 001°27'1 0.1
2015-Jul-24 05:24N 38°54' E 001°27'1011.8
2015-Jul-24 04:33N 38°59' E 001°39'1211.8
2015-Jul-24 03:33N 39°05' E 001°51'1211.9
2015-Jul-24 02:33N 39°11' E 002°04'1211.9
2015-Jul-24 01:33N 39°18' E 002°17'1212.1
2015-Jul-24 00:33N 39°25' E 002°30'7 7.0
2015-Jul-23 23:30N 39°32' E 002°34'0 0.0
2015-Jul-23 22:30N 39°32' E 002°34'4 4.7
2015-Jul-23 21:33N 39°27' E 002°32'13 5.5
2015-Jul-23 19:17N 39°37' E 002°21'1114.7
2015-Jul-23 18:32N 39°44' E 002°32'5412.9
2015-Jul-23 14:21N 39°55' E 003°41'  
2015-Jul-20 06:31N 40°06' E 003°58'5012.5
2015-Jul-20 02:33N 39°57' E 002°55'1312.8
2015-Jul-20 01:33N 39°53' E 002°39'1312.8
2015-Jul-20 00:33N 39°46' E 002°25'1212.5
2015-Jul-19 23:33N 39°38' E 002°13'1312.5
2015-Jul-19 22:30N 39°30' E 001°59'1212.5
2015-Jul-19 21:33N 39°22' E 001°48'1612.4
2015-Jul-19 20:17N 39°12' E 001°32'912.6
2015-Jul-19 19:33N 39°06' E 001°23'1110.9
2015-Jul-19 18:33N 38°58' E 001°13'  

Dump ship's entire track history